Westhaven, California
Current Conditions -  °F | °C
As of 10:53 PM on Thursday 27 Nov 2014 (Local Time) from KACV Reporting Station
Clear Clear  
Wind Chill: 50°   Ceiling: Unl
Heat Index: 50°   Visibility: 7mi
Dew Point: 49°   Wind: 3mph
Humidity: 96%   Direction: 80°E
Pressure: 29.97"   Gusts: NA
Location:  41.1412°N, 124.024°W
Report Text: KACV 280653Z AUTO 08003KT 7SM CLR 10/09 A2997 RMK AO2 SLP153 T01000094
Loading
Personal Weather Stations






























Interactive Weather Map New forecast layout! Learn more

10-Day Weather Forecast

Advertisements
Track Severe Weather on mobile